Time;durP1;ratioP1;P1;durP2;ratioP2;P2;SDS_P1;SDS_P2;PMS_P1;PMS_P2;Temp;Humidity;BMP_temperature;BMP_pressure;BME280_temperature;BME280_humidity;BME280_pressure;Samples;Min_cycle;Max_cycle;Signal;HPM_P1;HPM_P2
2022/10/18 00:02:14;;;;;;;18.65;13.60;;;19.00;87.80;;;;;;5035853;28;20478;-75
2022/10/18 00:04:40;;;;;;;29.17;13.75;;;18.90;88.20;;;;;;5035952;28;20033;-73
2022/10/18 00:07:06;;;;;;;22.58;13.43;;;18.90;88.40;;;;;;5035291;28;20474;-73
2022/10/18 00:09:32;;;;;;;18.05;13.45;;;18.90;88.70;;;;;;5017033;28;20055;-73
2022/10/18 00:11:58;;;;;;;16.45;11.90;;;18.80;88.50;;;;;;5035083;28;20025;-76
2022/10/18 00:14:23;;;;;;;21.77;13.27;;;18.80;88.70;;;;;;5034955;28;20030;-75
2022/10/18 00:16:49;;;;;;;18.20;12.50;;;18.80;89.00;;;;;;5034981;28;20505;-75
2022/10/18 00:19:16;;;;;;;17.42;11.48;;;18.70;88.90;;;;;;5035349;28;20037;-78
2022/10/18 00:21:41;;;;;;;22.38;12.77;;;18.70;89.00;;;;;;5035091;28;20386;-76
2022/10/18 00:24:07;;;;;;;18.00;12.88;;;18.70;88.90;;;;;;5034408;28;20025;-77
2022/10/18 00:26:33;;;;;;;18.20;12.05;;;18.70;88.90;;;;;;5034382;28;20022;-75
2022/10/18 00:29:03;;;;;;;16.98;12.13;;;18.80;89.30;;;;;;5034162;28;20044;-76
2022/10/18 00:31:30;;;;;;;18.58;13.13;;;18.80;89.30;;;;;;5034107;28;20029;-74
2022/10/18 00:33:59;;;;;;;19.75;12.93;;;18.80;89.40;;;;;;5034339;28;20029;-75
2022/10/18 00:36:27;;;;;;;22.73;12.65;;;18.70;89.40;;;;;;5033802;28;20495;-74
2022/10/18 00:38:53;;;;;;;22.27;12.50;;;18.70;89.40;;;;;;5033703;28;20037;-75
2022/10/18 00:41:23;;;;;;;16.83;11.98;;;18.70;89.70;;;;;;5034213;28;20028;-75
2022/10/18 00:44:04;;;;;;;18.65;12.38;;;18.60;89.40;;;;;;5034288;28;20033;-75
2022/10/18 00:46:34;;;;;;;24.67;11.88;;;18.60;89.90;;;;;;5033905;28;20018;-75
2022/10/18 00:49:05;;;;;;;18.77;11.80;;;18.60;89.70;;;;;;5053423;28;20029;-76
2022/10/18 00:51:37;;;;;;;17.67;12.02;;;18.50;89.70;;;;;;5034776;28;20064;-75
2022/10/18 00:54:03;;;;;;;19.85;12.20;;;18.50;89.50;;;;;;5017654;28;20487;-75
2022/10/18 00:56:29;;;;;;;23.08;12.15;;;18.50;89.60;;;;;;5036001;28;20044;-77
2022/10/18 00:58:56;;;;;;;18.75;12.25;;;18.50;89.60;;;;;;5035840;28;20037;-77
2022/10/18 01:01:21;;;;;;;21.10;12.30;;;18.50;89.60;;;;;;5019191;28;20033;-76
2022/10/18 01:03:48;;;;;;;16.60;12.00;;;18.40;89.60;;;;;;5037685;28;20084;-75
2022/10/18 01:06:14;;;;;;;17.73;11.20;;;18.40;89.70;;;;;;5038165;28;20467;-76
2022/10/18 01:08:59;;;;;;;19.02;11.35;;;18.30;89.70;;;;;;5036295;28;20064;-80
2022/10/18 01:11:40;;;;;;;19.83;11.70;;;18.30;90.00;;;;;;5037673;28;20024;-77
2022/10/18 01:14:15;;;;;;;16.48;11.57;;;18.30;89.60;;;;;;5038368;28;20044;-75
2022/10/18 01:16:46;;;;;;;20.77;11.57;;;18.30;89.90;;;;;;5036514;28;20033;-76
2022/10/18 01:19:46;;;;;;;17.80;11.95;;;18.30;90.10;;;;;;5034562;28;20087;-75
2022/10/18 01:22:26;;;;;;;18.27;11.48;;;18.30;90.10;;;;;;5034458;28;20013;-78
2022/10/18 01:25:33;;;;;;;15.77;11.00;;;18.30;90.00;;;;;;5033693;28;20032;-74
2022/10/18 01:28:26;;;;;;;16.23;10.63;;;18.30;90.00;;;;;;5033392;28;20036;-75
2022/10/18 01:30:58;;;;;;;19.52;11.73;;;18.30;90.10;;;;;;5033735;28;20033;-74
2022/10/18 01:33:49;;;;;;;16.48;11.07;;;18.30;89.70;;;;;;5031643;28;20029;-75
2022/10/18 01:36:24;;;;;;;15.05;11.02;;;18.30;89.70;;;;;;5032888;28;20032;-76
2022/10/18 01:38:53;;;;;;;19.70;11.30;;;18.30;90.10;;;;;;5033674;28;20045;-75
2022/10/18 01:41:22;;;;;;;18.95;11.45;;;18.30;89.70;;;;;;5036177;28;20021;-76
2022/10/18 01:43:50;;;;;;;14.85;10.07;;;18.30;89.80;;;;;;5037840;28;20029;-73
2022/10/18 01:46:21;;;;;;;15.07;10.98;;;18.30;89.80;;;;;;5037204;28;20049;-74
2022/10/18 01:48:47;;;;;;;18.08;11.77;;;18.30;89.50;;;;;;5037407;28;20462;-73
2022/10/18 01:51:13;;;;;;;16.27;11.57;;;18.20;90.10;;;;;;5037095;28;20052;-75
2022/10/18 01:53:39;;;;;;;19.42;11.82;;;18.10;89.80;;;;;;5037114;28;20033;-74
2022/10/18 01:56:19;;;;;;;16.63;11.77;;;18.10;89.80;;;;;;5036962;28;20032;-75
2022/10/18 01:58:57;;;;;;;15.75;10.43;;;18.00;90.10;;;;;;5037970;28;20038;-75
2022/10/18 02:02:03;;;;;;;16.70;11.43;;;17.90;90.10;;;;;;5037874;28;20391;-75
2022/10/18 02:04:57;;;;;;;18.63;11.55;;;18.00;90.30;;;;;;5038250;28;20030;-74
2022/10/18 02:07:30;;;;;;;15.27;11.25;;;18.00;90.20;;;;;;5036609;28;20121;-75
2022/10/18 02:10:19;;;;;;;21.88;10.70;;;17.90;90.10;;;;;;5037517;28;20037;-74
2022/10/18 02:12:47;;;;;;;16.05;11.13;;;17.90;90.30;;;;;;5038021;28;20025;-73
2022/10/18 02:15:16;;;;;;;16.10;11.25;;;17.90;90.10;;;;;;5037009;28;20033;-74
2022/10/18 02:17:45;;;;;;;18.35;11.68;;;17.90;90.20;;;;;;5036866;28;20041;-74
2022/10/18 02:20:13;;;;;;;18.02;10.88;;;17.90;90.30;;;;;;5036788;28;20021;-72
2022/10/18 02:22:41;;;;;;;16.95;11.18;;;17.90;90.40;;;;;;5037813;28;20025;-74
2022/10/18 02:25:12;;;;;;;16.67;10.52;;;17.80;90.30;;;;;;5037899;28;20034;-75
2022/10/18 02:27:38;;;;;;;14.95;10.10;;;17.90;90.40;;;;;;5037635;28;20017;-75
2022/10/18 02:30:05;;;;;;;16.88;10.45;;;17.80;90.40;;;;;;5037325;28;20438;-76
2022/10/18 02:32:43;;;;;;;16.45;11.05;;;17.80;90.50;;;;;;5037111;28;20030;-75
2022/10/18 02:35:25;;;;;;;16.13;10.38;;;17.80;90.50;;;;;;5036858;28;20051;-75
2022/10/18 02:37:52;;;;;;;14.90;10.00;;;17.80;90.70;;;;;;5036582;28;20041;-75
2022/10/18 02:40:19;;;;;;;13.77;10.32;;;17.80;90.50;;;;;;5018943;28;20483;-74
2022/10/18 02:42:48;;;;;;;12.93;9.80;;;17.80;90.60;;;;;;5036222;28;20033;-74
2022/10/18 02:45:14;;;;;;;14.52;10.15;;;17.70;90.50;;;;;;5036078;28;20472;-74
2022/10/18 02:47:40;;;;;;;18.88;10.57;;;17.70;90.60;;;;;;5036030;28;20026;-76
2022/10/18 02:50:06;;;;;;;13.10;9.13;;;17.70;90.50;;;;;;5036342;28;20091;-76
2022/10/18 02:52:33;;;;;;;15.48;9.73;;;17.80;90.50;;;;;;5036803;28;20060;-74
2022/10/18 02:55:00;;;;;;;12.77;9.63;;;17.80;90.60;;;;;;5036572;28;20026;-75
2022/10/18 02:57:26;;;;;;;17.58;9.45;;;17.80;90.40;;;;;;5007226;28;20181;-76
2022/10/18 02:59:51;;;;;;;12.60;8.82;;;17.70;90.40;;;;;;5016935;28;20124;-74
2022/10/18 03:02:17;;;;;;;15.18;9.60;;;17.70;90.40;;;;;;5016843;28;20483;-75
2022/10/18 03:04:43;;;;;;;16.75;9.75;;;17.70;90.40;;;;;;5016660;28;20153;-74
2022/10/18 03:07:09;;;;;;;11.68;8.30;;;17.70;90.50;;;;;;5016527;28;20069;-74
2022/10/18 03:09:34;;;;;;;13.90;9.63;;;17.70;90.40;;;;;;5016692;28;20486;-78
2022/10/18 03:12:00;;;;;;;13.63;9.20;;;17.70;90.40;;;;;;5016613;28;20479;-76
2022/10/18 03:14:26;;;;;;;16.08;9.68;;;17.70;90.50;;;;;;5017080;28;20080;-76
2022/10/18 03:16:52;;;;;;;11.48;8.80;;;17.60;90.40;;;;;;5018110;28;20018;-78
2022/10/18 03:19:17;;;;;;;13.40;9.43;;;17.60;90.40;;;;;;5018483;28;20448;-75
2022/10/18 03:21:43;;;;;;;17.73;9.10;;;17.60;90.40;;;;;;5017397;28;20412;-77
2022/10/18 03:24:09;;;;;;;13.20;9.05;;;17.60;90.40;;;;;;5017281;28;20426;-76
2022/10/18 03:26:34;;;;;;;13.35;8.75;;;17.60;90.40;;;;;;5015601;28;20049;-76
2022/10/18 03:29:00;;;;;;;15.65;9.20;;;17.50;90.40;;;;;;5015420;28;20467;-74
2022/10/18 03:31:26;;;;;;;12.63;8.98;;;17.50;90.40;;;;;;4997995;28;20014;-75
2022/10/18 03:33:52;;;;;;;12.80;8.98;;;17.50;90.50;;;;;;5015782;28;20053;-74
2022/10/18 03:36:17;;;;;;;14.05;9.65;;;17.50;90.50;;;;;;5015210;28;20022;-74
2022/10/18 03:38:43;;;;;;;12.43;8.77;;;17.50;90.60;;;;;;5015343;28;20037;-74
2022/10/18 03:41:09;;;;;;;14.10;9.25;;;17.40;90.40;;;;;;5015400;28;20434;-75
2022/10/18 03:43:35;;;;;;;12.55;8.68;;;17.40;90.50;;;;;;4997705;28;20030;-74
2022/10/18 03:46:00;;;;;;;17.50;8.95;;;17.40;90.50;;;;;;5014991;28;20108;-75
2022/10/18 03:48:26;;;;;;;16.65;9.32;;;17.40;90.50;;;;;;4997326;28;20030;-76
2022/10/18 03:50:52;;;;;;;15.82;9.93;;;17.40;90.50;;;;;;5014880;28;20026;-75
2022/10/18 03:53:18;;;;;;;13.40;9.13;;;17.40;90.60;;;;;;5015315;28;20466;-75
2022/10/18 03:55:43;;;;;;;18.20;9.25;;;17.40;90.60;;;;;;5014877;28;20022;-75
2022/10/18 03:58:09;;;;;;;14.68;9.20;;;17.40;90.60;;;;;;4997148;28;20054;-77
2022/10/18 04:00:35;;;;;;;12.75;8.93;;;17.30;90.50;;;;;;5015191;28;20037;-76
2022/10/18 04:03:00;;;;;;;12.77;9.10;;;17.30;90.60;;;;;;5014745;28;20026;-76
2022/10/18 04:05:29;;;;;;;12.93;9.13;;;17.30;90.50;;;;;;5015781;28;20041;-76
2022/10/18 04:07:56;;;;;;;16.00;9.88;;;17.30;90.50;;;;;;5015664;28;20033;-75
2022/10/18 04:10:22;;;;;;;17.60;8.98;;;17.30;90.40;;;;;;5015255;28;20029;-75
2022/10/18 04:12:48;;;;;;;13.65;9.20;;;17.20;90.60;;;;;;5015234;28;20030;-74
2022/10/18 04:15:14;;;;;;;15.23;9.30;;;17.20;90.50;;;;;;5015197;28;20029;-74
2022/10/18 04:17:40;;;;;;;12.85;7.90;;;17.20;90.60;;;;;;5015166;28;20072;-75
2022/10/18 04:20:07;;;;;;;13.93;8.30;;;17.20;90.60;;;;;;5014726;28;20116;-75
2022/10/18 04:22:33;;;;;;;13.82;8.10;;;17.20;90.50;;;;;;5014634;28;20029;-76
2022/10/18 04:24:59;;;;;;;14.13;8.80;;;17.20;90.50;;;;;;5014600;28;20029;-76
2022/10/18 04:27:25;;;;;;;14.65;8.05;;;17.20;90.40;;;;;;5015348;28;20026;-75
2022/10/18 04:29:51;;;;;;;17.55;8.23;;;17.20;90.40;;;;;;5014984;28;20040;-74
2022/10/18 04:32:16;;;;;;;12.27;8.15;;;17.20;90.40;;;;;;5014600;28;20467;-74
2022/10/18 04:34:42;;;;;;;13.52;8.63;;;17.20;90.40;;;;;;5014736;28;20368;-76
2022/10/18 04:37:08;;;;;;;12.13;8.77;;;17.10;90.30;;;;;;5014894;28;20028;-75
2022/10/18 04:39:33;;;;;;;13.15;8.52;;;17.20;90.60;;;;;;5014532;28;20041;-76
2022/10/18 04:41:59;;;;;;;18.42;13.18;;;17.10;90.50;;;;;;4996657;28;20549;-78
2022/10/18 04:44:25;;;;;;;19.15;12.25;;;17.10;90.60;;;;;;5014674;28;20026;-75
2022/10/18 04:46:50;;;;;;;17.17;12.43;;;17.00;90.60;;;;;;5014381;28;20231;-75
2022/10/18 04:49:16;;;;;;;20.08;11.88;;;17.00;90.60;;;;;;5014422;28;20356;-75
2022/10/18 04:51:42;;;;;;;16.73;11.73;;;17.00;90.70;;;;;;5014191;28;20495;-79
2022/10/18 04:54:07;;;;;;;18.52;11.20;;;16.90;90.70;;;;;;5014246;28;20451;-74
2022/10/18 04:56:33;;;;;;;17.90;11.70;;;16.90;90.70;;;;;;5018843;28;20459;-75
2022/10/18 04:58:59;;;;;;;17.67;10.70;;;16.90;90.70;;;;;;5033976;28;20040;-75
2022/10/18 05:01:25;;;;;;;16.98;10.50;;;16.90;90.80;;;;;;5016136;28;20057;-74
2022/10/18 05:03:54;;;;;;;14.40;9.15;;;16.90;90.80;;;;;;5033612;28;20100;-75
2022/10/18 05:06:21;;;;;;;14.88;9.18;;;16.80;90.80;;;;;;5034445;28;20352;-76
2022/10/18 05:08:47;;;;;;;15.05;9.90;;;16.90;90.90;;;;;;5034139;28;20027;-75
2022/10/18 05:11:13;;;;;;;13.35;9.27;;;16.90;90.80;;;;;;5034606;28;20029;-79
2022/10/18 05:13:38;;;;;;;13.73;9.10;;;16.90;90.90;;;;;;5033794;28;20017;-77
2022/10/18 05:16:05;;;;;;;13.52;9.10;;;16.90;90.90;;;;;;5033190;28;20049;-77
2022/10/18 05:18:30;;;;;;;13.48;9.38;;;16.90;90.90;;;;;;5034105;28;20037;-76
2022/10/18 05:20:56;;;;;;;14.93;9.48;;;16.90;90.90;;;;;;5033877;28;20391;-75
2022/10/18 05:23:22;;;;;;;14.45;8.98;;;16.80;90.90;;;;;;5034731;28;20053;-77
2022/10/18 05:25:48;;;;;;;14.27;9.10;;;16.80;90.90;;;;;;5034869;28;20045;-76
2022/10/18 05:28:14;;;;;;;22.40;10.35;;;16.80;90.90;;;;;;5034556;28;20052;-78
2022/10/18 05:30:40;;;;;;;19.23;9.40;;;16.80;90.90;;;;;;5033610;28;20036;-76
2022/10/18 05:33:07;;;;;;;18.25;8.75;;;16.80;91.00;;;;;;5033548;28;20021;-79
2022/10/18 05:35:35;;;;;;;15.90;9.23;;;16.90;90.90;;;;;;5033585;28;20026;-74
2022/10/18 05:38:05;;;;;;;17.23;9.43;;;16.80;91.00;;;;;;5033517;28;20051;-75
2022/10/18 05:40:36;;;;;;;13.43;8.98;;;16.80;90.90;;;;;;5033714;28;20037;-75
2022/10/18 05:43:02;;;;;;;13.70;8.60;;;16.90;90.90;;;;;;5033856;28;20018;-77
2022/10/18 05:45:29;;;;;;;16.20;9.48;;;16.90;90.90;;;;;;5033821;28;20041;-75
2022/10/18 05:47:55;;;;;;;19.33;9.02;;;16.80;91.00;;;;;;5035071;28;20022;-78
2022/10/18 05:50:20;;;;;;;14.43;8.48;;;16.80;90.80;;;;;;5034055;28;20030;-75
2022/10/18 05:52:46;;;;;;;15.13;8.60;;;16.80;90.90;;;;;;5035116;28;20022;-77
2022/10/18 05:55:12;;;;;;;13.40;8.18;;;16.80;90.80;;;;;;5035207;28;20026;-75
2022/10/18 05:57:37;;;;;;;15.98;8.98;;;16.80;90.90;;;;;;5034105;28;20117;-76
2022/10/18 06:00:03;;;;;;;19.63;8.25;;;16.80;90.90;;;;;;5034896;28;20029;-75
2022/10/18 06:02:30;;;;;;;15.05;8.13;;;16.80;90.80;;;;;;5034611;28;20021;-78
2022/10/18 06:04:56;;;;;;;12.52;8.50;;;16.80;90.90;;;;;;5033657;28;20033;-73
2022/10/18 06:07:22;;;;;;;15.95;8.65;;;16.80;90.80;;;;;;5033326;28;20025;-75
2022/10/18 06:09:47;;;;;;;13.55;8.60;;;16.90;90.80;;;;;;5033440;28;20113;-76
2022/10/18 06:12:13;;;;;;;18.15;9.55;;;16.90;90.80;;;;;;5033534;28;20013;-75
2022/10/18 06:14:39;;;;;;;14.52;9.25;;;17.00;90.80;;;;;;5033137;28;20355;-75
2022/10/18 06:17:04;;;;;;;21.20;9.77;;;17.00;90.70;;;;;;5032377;28;20025;-75
2022/10/18 06:19:30;;;;;;;21.90;9.52;;;17.10;90.70;;;;;;5032058;28;20045;-76
2022/10/18 06:21:56;;;;;;;16.60;9.48;;;17.10;90.60;;;;;;5014279;28;20018;-74
2022/10/18 06:24:21;;;;;;;17.38;9.82;;;17.20;90.70;;;;;;5032250;28;20438;-76
2022/10/18 06:26:48;;;;;;;15.77;10.45;;;17.20;91.00;;;;;;5033577;28;20101;-73
2022/10/18 06:29:14;;;;;;;13.23;9.50;;;17.30;90.70;;;;;;5035926;28;20030;-75
2022/10/18 06:31:39;;;;;;;18.80;10.70;;;17.30;90.80;;;;;;5035932;28;20032;-75
2022/10/18 06:34:05;;;;;;;18.90;10.95;;;17.40;90.70;;;;;;5035897;28;20033;-75
2022/10/18 06:36:31;;;;;;;17.55;9.88;;;17.60;90.70;;;;;;5018707;28;20025;-76
2022/10/18 06:38:58;;;;;;;17.70;10.20;;;17.70;90.60;;;;;;5036150;28;20144;-77
2022/10/18 06:41:24;;;;;;;16.50;10.75;;;17.80;90.50;;;;;;5036337;28;20022;-75
2022/10/18 06:43:52;;;;;;;18.17;10.95;;;17.80;90.30;;;;;;5036159;28;20040;-76
2022/10/18 06:46:18;;;;;;;18.85;10.30;;;17.90;90.20;;;;;;5037009;28;20032;-76
2022/10/18 06:48:44;;;;;;;20.67;11.50;;;17.90;90.30;;;;;;5037755;28;20038;-77
2022/10/18 06:51:10;;;;;;;21.05;11.13;;;18.00;90.10;;;;;;5037803;28;20032;-76
2022/10/18 06:53:38;;;;;;;20.40;10.25;;;18.10;90.00;;;;;;5035657;28;20569;-75
2022/10/18 06:56:07;;;;;;;16.95;10.13;;;18.20;89.90;;;;;;5035280;28;20088;-76
2022/10/18 06:58:34;;;;;;;20.25;10.43;;;18.20;89.80;;;;;;5036171;28;20033;-76
2022/10/18 07:01:06;;;;;;;20.88;10.63;;;18.30;89.40;;;;;;5051633;28;20500;-76
2022/10/18 07:03:33;;;;;;;21.77;10.15;;;18.40;89.40;;;;;;5036238;28;20029;-76
2022/10/18 07:06:01;;;;;;;18.00;10.07;;;18.50;89.00;;;;;;5035783;28;20029;-82
2022/10/18 07:08:28;;;;;;;17.70;10.40;;;18.50;88.60;;;;;;5035955;28;20498;-78
2022/10/18 07:10:54;;;;;;;17.75;10.40;;;18.70;88.70;;;;;;5036077;28;20024;-76
2022/10/18 07:13:20;;;;;;;18.10;10.73;;;18.80;88.40;;;;;;5035775;28;20090;-78
2022/10/18 07:15:46;;;;;;;19.17;10.57;;;18.90;87.50;;;;;;5035682;28;20022;-78
2022/10/18 07:18:12;;;;;;;17.90;9.60;;;19.00;87.50;;;;;;5035963;28;20521;-79
2022/10/18 07:20:37;;;;;;;19.02;9.80;;;19.10;87.40;;;;;;5036734;28;20032;-77
2022/10/18 07:23:05;;;;;;;25.88;9.95;;;19.30;87.00;;;;;;5035475;28;20493;-75
2022/10/18 07:25:31;;;;;;;16.27;9.38;;;19.40;86.30;;;;;;5035914;28;20021;-76
2022/10/18 07:27:57;;;;;;;16.95;9.73;;;19.50;85.90;;;;;;5035227;28;20501;-76
2022/10/18 07:30:23;;;;;;;17.45;9.18;;;19.40;85.50;;;;;;5036023;28;20560;-77
2022/10/18 07:32:50;;;;;;;15.48;8.57;;;19.50;85.50;;;;;;5036159;28;20022;-76
2022/10/18 07:35:17;;;;;;;17.08;9.70;;;19.50;85.20;;;;;;5035636;28;20113;-80
2022/10/18 07:37:42;;;;;;;19.77;10.15;;;19.60;85.00;;;;;;5034774;28;20017;-77
2022/10/18 07:40:10;;;;;;;18.80;9.75;;;19.60;84.70;;;;;;5035374;28;20384;-76
2022/10/18 07:42:36;;;;;;;17.60;9.48;;;19.60;84.80;;;;;;5018565;28;20083;-75
2022/10/18 07:45:05;;;;;;;16.92;10.75;;;19.60;84.80;;;;;;5035716;28;20025;-76
2022/10/18 07:47:31;;;;;;;17.70;10.73;;;19.60;84.50;;;;;;5034591;28;20072;-77
2022/10/18 07:49:57;;;;;;;19.40;11.30;;;19.60;84.50;;;;;;5034807;28;20045;-74
2022/10/18 07:52:22;;;;;;;14.10;9.43;;;19.60;84.60;;;;;;5034584;28;20363;-75
2022/10/18 07:54:48;;;;;;;16.83;9.75;;;19.60;84.50;;;;;;5034394;28;20022;-77
2022/10/18 07:57:32;;;;;;;19.90;10.00;;;19.60;84.50;;;;;;5033758;28;20064;-75
2022/10/18 07:59:58;;;;;;;17.73;9.23;;;19.60;84.30;;;;;;5034762;28;20506;-76
2022/10/18 08:02:24;;;;;;;20.50;10.25;;;19.60;84.00;;;;;;5034407;28;20029;-80
2022/10/18 08:04:50;;;;;;;16.70;8.93;;;19.60;84.00;;;;;;5034125;28;20041;-74
2022/10/18 08:07:15;;;;;;;28.02;11.10;;;19.70;83.50;;;;;;5034094;28;20510;-75
2022/10/18 08:09:41;;;;;;;16.20;9.57;;;19.70;83.60;;;;;;5033992;28;20030;-75
2022/10/18 08:12:07;;;;;;;17.20;9.68;;;19.70;83.70;;;;;;5034452;28;20077;-75
2022/10/18 08:14:34;;;;;;;19.58;9.95;;;19.70;83.30;;;;;;5033649;28;20057;-75
2022/10/18 08:17:00;;;;;;;14.77;9.45;;;19.70;83.10;;;;;;5033949;28;20021;-75
2022/10/18 08:19:26;;;;;;;18.67;10.80;;;19.70;83.10;;;;;;5033646;28;20088;-76
2022/10/18 08:21:51;;;;;;;22.08;10.63;;;19.80;83.00;;;;;;5033636;28;20032;-74
2022/10/18 08:24:17;;;;;;;20.60;9.43;;;19.80;83.10;;;;;;5033912;28;20032;-76
2022/10/18 08:26:43;;;;;;;21.98;9.50;;;19.80;83.10;;;;;;5016504;28;20486;-77
2022/10/18 08:29:09;;;;;;;15.88;9.23;;;19.80;83.30;;;;;;5034757;28;20514;-75
2022/10/18 08:31:35;;;;;;;14.00;8.93;;;19.80;83.10;;;;;;5037380;28;20049;-77
2022/10/18 08:34:01;;;;;;;15.32;8.35;;;19.80;83.30;;;;;;5035177;28;20057;-76
2022/10/18 08:36:27;;;;;;;12.88;7.72;;;19.80;82.60;;;;;;5035393;28;20037;-77
2022/10/18 08:38:54;;;;;;;13.27;7.40;;;19.90;82.70;;;;;;5033912;28;20037;-76
2022/10/18 08:41:41;;;;;;;12.23;8.35;;;19.90;83.10;;;;;;5034107;28;20088;-77
2022/10/18 08:44:16;;;;;;;13.68;8.40;;;19.90;82.90;;;;;;5034115;28;20382;-78
2022/10/18 08:46:45;;;;;;;20.65;9.40;;;20.00;82.70;;;;;;5033989;28;20029;-76
2022/10/18 08:49:19;;;;;;;14.57;7.20;;;20.10;81.90;;;;;;5033708;28;20033;-79
2022/10/18 08:51:48;;;;;;;11.85;6.95;;;20.10;81.60;;;;;;5033964;28;20536;-76
2022/10/18 08:54:36;;;;;;;11.18;7.32;;;20.20;81.20;;;;;;5034467;28;20091;-79
2022/10/18 08:57:09;;;;;;;13.00;6.97;;;20.20;80.90;;;;;;5034072;28;20048;-76
2022/10/18 08:59:39;;;;;;;12.70;7.35;;;20.30;80.70;;;;;;5034206;28;20418;-78
2022/10/18 09:02:14;;;;;;;15.30;6.85;;;20.40;80.40;;;;;;5034071;28;20017;-78
2022/10/18 09:04:52;;;;;;;15.95;8.10;;;20.40;80.20;;;;;;5033880;28;20040;-78
2022/10/18 09:07:45;;;;;;;12.95;7.72;;;20.50;80.90;;;;;;5033237;28;20022;-79
2022/10/18 09:10:35;;;;;;;14.05;7.22;;;20.60;80.00;;;;;;5033555;28;20029;-76
2022/10/18 09:13:13;;;;;;;11.98;6.35;;;20.70;79.50;;;;;;5032444;28;20036;-78
2022/10/18 09:15:49;;;;;;;9.70;6.30;;;20.80;79.00;;;;;;5035236;28;20026;-74
2022/10/18 09:18:32;;;;;;;16.02;6.75;;;20.90;78.80;;;;;;5033735;28;20136;-79
2022/10/18 09:21:04;;;;;;;14.88;7.00;;;20.90;79.00;;;;;;5033505;28;20033;-77
2022/10/18 09:23:44;;;;;;;17.15;9.38;;;21.00;77.80;;;;;;5034272;28;20398;-76
2022/10/18 09:26:23;;;;;;;11.13;7.00;;;21.10;78.30;;;;;;5036517;28;20030;-74
2022/10/18 09:28:58;;;;;;;17.70;7.45;;;21.20;78.10;;;;;;5035218;28;20560;-76
2022/10/18 09:31:44;;;;;;;18.27;7.57;;;21.20;77.70;;;;;;5034471;28;20483;-76
2022/10/18 09:34:16;;;;;;;23.77;9.30;;;21.30;76.80;;;;;;5016947;28;20129;-79
2022/10/18 09:36:43;;;;;;;22.02;7.88;;;21.40;76.30;;;;;;5034131;28;20056;-77
2022/10/18 09:39:20;;;;;;;16.85;8.68;;;21.50;75.80;;;;;;5032922;28;20117;-77
2022/10/18 09:41:46;;;;;;;17.90;7.82;;;21.60;75.70;;;;;;5033888;28;20458;-80
2022/10/18 09:44:22;;;;;;;18.45;7.05;;;21.70;75.50;;;;;;5033453;28;20029;-77
2022/10/18 09:47:17;;;;;;;13.20;6.78;;;21.80;75.40;;;;;;5032588;28;20487;-75
2022/10/18 09:49:47;;;;;;;15.93;7.28;;;21.90;75.00;;;;;;5032271;28;20056;-76
2022/10/18 09:52:19;;;;;;;14.57;6.78;;;22.00;74.40;;;;;;5031409;28;20029;-75
2022/10/18 09:54:56;;;;;;;15.35;7.57;;;22.00;74.40;;;;;;5033243;28;20034;-76
2022/10/18 09:57:38;;;;;;;9.63;7.50;;;22.10;74.30;;;;;;5031122;28;20150;-76
2022/10/18 10:00:13;;;;;;;14.23;7.38;;;22.10;74.80;;;;;;5032641;28;20037;-76
2022/10/18 10:02:38;;;;;;;13.38;6.88;;;22.20;74.00;;;;;;5034394;28;20046;-77
2022/10/18 10:05:08;;;;;;;18.63;8.02;;;22.30;73.80;;;;;;5037510;28;20026;-80
2022/10/18 10:07:40;;;;;;;13.55;7.35;;;22.40;73.70;;;;;;5037305;28;20099;-77
2022/10/18 10:10:28;;;;;;;16.42;7.60;;;22.50;73.10;;;;;;5037158;28;20100;-77
2022/10/18 10:13:21;;;;;;;17.33;6.75;;;22.60;73.00;;;;;;5036301;28;20045;-77
2022/10/18 10:15:56;;;;;;;14.50;6.45;;;22.70;73.10;;;;;;5036723;28;20025;-78
2022/10/18 10:18:25;;;;;;;12.15;6.85;;;22.80;72.40;;;;;;5036399;28;20044;-77
2022/10/18 10:20:59;;;;;;;14.07;7.13;;;23.00;72.30;;;;;;5037134;28;20136;-77
2022/10/18 10:23:30;;;;;;;15.20;6.60;;;23.00;72.30;;;;;;5038747;28;20418;-75
2022/10/18 10:25:58;;;;;;;11.05;6.10;;;23.10;71.80;;;;;;5041524;28;20038;-75
2022/10/18 10:28:30;;;;;;;14.75;6.60;;;23.20;70.90;;;;;;5041710;28;20470;-76
2022/10/18 10:31:29;;;;;;;11.15;6.13;;;23.30;70.80;;;;;;5038240;28;20025;-76
2022/10/18 10:34:13;;;;;;;14.77;5.72;;;23.40;70.90;;;;;;5006992;28;20120;-78
2022/10/18 10:36:47;;;;;;;9.38;6.45;;;23.50;71.10;;;;;;5036219;28;20092;-77
2022/10/18 10:39:18;;;;;;;11.05;6.90;;;23.60;70.30;;;;;;5036793;28;20467;-77
2022/10/18 10:42:00;;;;;;;8.75;5.88;;;23.80;70.00;;;;;;5036466;28;20359;-78
2022/10/18 10:44:29;;;;;;;12.60;6.72;;;23.80;69.80;;;;;;5035820;28;20075;-78
2022/10/18 10:46:55;;;;;;;15.15;6.45;;;23.90;69.30;;;;;;5035617;28;20550;-76
2022/10/18 10:49:38;;;;;;;12.07;6.40;;;23.90;69.20;;;;;;5035272;28;20032;-77
2022/10/18 10:52:04;;;;;;;8.67;5.23;;;24.00;68.60;;;;;;5035757;28;20029;-76
2022/10/18 10:54:34;;;;;;;10.80;5.75;;;24.10;69.70;;;;;;5035300;28;20029;-75
2022/10/18 10:57:10;;;;;;;11.30;6.32;;;24.20;70.00;;;;;;5036229;28;20127;-76
2022/10/18 11:00:04;;;;;;;10.55;6.30;;;24.30;69.40;;;;;;5040304;28;20038;-76
2022/10/18 11:02:32;;;;;;;12.13;6.82;;;24.40;67.00;;;;;;5038084;28;20036;-75
2022/10/18 11:05:23;;;;;;;10.45;5.75;;;24.40;68.80;;;;;;5035521;28;20375;-76
2022/10/18 11:07:53;;;;;;;13.20;6.80;;;24.60;68.80;;;;;;5035425;28;20025;-77
2022/10/18 11:10:23;;;;;;;80.45;11.75;;;24.60;68.30;;;;;;5036770;28;20363;-75
2022/10/18 11:13:22;;;;;;;11.00;5.93;;;24.70;67.90;;;;;;5035587;28;20057;-75
2022/10/18 11:15:54;;;;;;;10.90;5.80;;;24.80;67.30;;;;;;5035268;28;20607;-80
2022/10/18 11:18:23;;;;;;;11.60;5.57;;;24.90;67.30;;;;;;5034269;28;20033;-76
2022/10/18 11:21:06;;;;;;;14.82;6.47;;;25.00;66.90;;;;;;5035700;28;20181;-77
2022/10/18 11:23:36;;;;;;;10.00;5.72;;;25.10;65.20;;;;;;5035372;28;20076;-75
2022/10/18 11:26:43;;;;;;;8.43;4.93;;;25.10;65.80;;;;;;5034607;28;20033;-76
2022/10/18 11:29:18;;;;;;;9.38;5.85;;;25.30;64.50;;;;;;5013462;28;20029;-76
2022/10/18 11:32:34;;;;;;;10.85;5.35;;;25.30;63.90;;;;;;5033566;28;20037;-77
2022/10/18 11:35:38;;;;;;;14.88;6.03;;;25.40;63.60;;;;;;4974125;28;20313;-78
2022/10/18 11:38:06;;;;;;;11.32;5.35;;;25.50;63.20;;;;;;4973887;28;20123;-78
2022/10/18 11:40:58;;;;;;;13.07;7.28;;;25.50;63.80;;;;;;5022037;28;20433;-76
2022/10/18 11:43:51;;;;;;;15.02;6.32;;;25.60;63.70;;;;;;5036022;28;20562;-78
2022/10/18 11:46:20;;;;;;;15.93;6.82;;;25.70;63.00;;;;;;5034553;28;20060;-78
2022/10/18 11:49:06;;;;;;;13.50;6.40;;;25.70;64.10;;;;;;5034996;28;20491;-77
2022/10/18 11:52:09;;;;;;;19.25;6.95;;;25.80;63.10;;;;;;5034490;28;20033;-78
2022/10/18 11:55:05;;;;;;;10.93;7.03;;;25.90;63.10;;;;;;5034305;28;20083;-77
2022/10/18 11:57:49;;;;;;;10.82;6.22;;;25.90;63.60;;;;;;5032778;28;20510;-75
2022/10/18 12:00:22;;;;;;;;;;;26.00;63.60;;;;;;5034948;28;20077;-78
2022/10/18 12:03:06;;;;;;;10.88;6.72;;;26.10;62.80;;;;;;5034170;28;20004;-79
2022/10/18 12:05:34;;;;;;;;;;;26.10;63.20;;;;;;5035002;28;20060;-75
2022/10/18 12:08:48;;;;;;;10.43;6.18;;;26.10;62.80;;;;;;5034593;28;19951;-78
2022/10/18 12:11:19;;;;;;;11.53;7.00;;;26.20;62.70;;;;;;4973241;28;20509;-78
2022/10/18 12:13:52;;;;;;;11.57;6.47;;;26.20;63.10;;;;;;4973364;28;20030;-77
2022/10/18 12:16:21;;;;;;;10.50;7.20;;;26.20;62.70;;;;;;5006646;28;20040;-75
2022/10/18 12:18:58;;;;;;;9.13;6.40;;;26.20;62.50;;;;;;5034003;28;20110;-78
2022/10/18 12:21:28;;;;;;;9.73;6.15;;;26.30;62.00;;;;;;5034001;28;20124;-78
2022/10/18 12:24:17;;;;;;;14.05;6.93;;;26.30;62.30;;;;;;5033599;28;20032;-77
2022/10/18 12:26:47;;;;;;;12.38;6.35;;;26.50;62.70;;;;;;5033779;28;20032;-77
2022/10/18 12:29:51;;;;;;;10.85;6.00;;;26.50;64.30;;;;;;5033721;28;20014;-76
2022/10/18 12:32:23;;;;;;;13.05;6.40;;;26.60;65.30;;;;;;4972715;28;20102;-77
2022/10/18 12:34:54;;;;;;;9.07;6.07;;;26.60;66.00;;;;;;5025017;28;20038;-76
2022/10/18 12:37:47;;;;;;;12.65;5.78;;;26.60;66.40;;;;;;5016097;28;20037;-75
2022/10/18 12:40:31;;;;;;;10.55;6.80;;;26.70;66.30;;;;;;5033243;28;20067;-80
2022/10/18 12:42:58;;;;;;;13.77;6.57;;;26.70;66.80;;;;;;5033659;28;20032;-78
2022/10/18 12:45:32;;;;;;;9.18;6.60;;;26.70;66.90;;;;;;5033603;28;20022;-78
2022/10/18 12:47:59;;;;;;;12.43;5.88;;;26.70;67.10;;;;;;5033172;28;20193;-79
2022/10/18 12:50:28;;;;;;;10.77;6.30;;;26.70;67.40;;;;;;5033602;28;20052;-76
2022/10/18 12:53:14;;;;;;;9.68;6.57;;;26.70;67.30;;;;;;5032905;28;20417;-75
2022/10/18 12:55:46;;;;;;;9.68;6.88;;;26.70;66.70;;;;;;5032978;28;20519;-75
2022/10/18 12:58:14;;;;;;;13.93;6.50;;;26.80;67.40;;;;;;5033030;28;20189;-75